Armington, Illinois
Current Conditions -  °F | °C
As of 4:55 PM on Saturday 25 Oct 2014 (Local Time) from KAAA Reporting Station
Clear Clear  
Wind Chill: 76°   Ceiling: Unl
Heat Index: 78°   Visibility: 10mi
Dew Point: 48°   Wind: 3mph
Humidity: 37%   Direction: 310°NW
Pressure: 29.97"   Gusts: NA
Location:  40.34°N, 89.31°W
Report Text: KAAA 252155Z AUTO 31003KT 10SM CLR 25/09 A2997 RMK AO2 T02450087
Loading
Personal Weather Stations






























Interactive Weather Map
Tropical Storm Tracking
New forecast layout! Learn more

10-Day Weather Forecast

Advertisements
Track Severe Weather on mobile